Time;durP1;ratioP1;P1;durP2;ratioP2;P2;SDS_P1;SDS_P2;PMS_P1;PMS_P2;Temp;Humidity;BMP_temperature;BMP_pressure;BME280_temperature;BME280_humidity;BME280_pressure;Samples;Min_cycle;Max_cycle;Signal;HPM_P1;HPM_P2
2023/05/09 00:00:36;;;;;;;103.23;8.87;;;13.60;99.90;;;;;;2042991;28;20234;-70
2023/05/09 00:01:38;;;;;;;47.63;7.60;;;13.40;99.90;;;;;;2047117;28;20238;-70
2023/05/09 00:02:40;;;;;;;55.70;10.23;;;13.40;99.90;;;;;;2037605;29;20737;-69
2023/05/09 00:03:41;;;;;;;63.97;8.60;;;13.40;99.90;;;;;;2047974;28;20220;-70
2023/05/09 00:04:42;;;;;;;17.38;6.53;;;13.40;99.90;;;;;;2047993;28;20657;-70
2023/05/09 00:05:43;;;;;;;68.63;12.13;;;13.40;99.90;;;;;;2047862;28;20993;-70
2023/05/09 00:06:44;;;;;;;80.70;12.63;;;13.40;99.90;;;;;;2041482;29;20263;-70
2023/05/09 00:07:45;;;;;;;61.75;10.65;;;13.40;99.90;;;;;;2054425;28;20273;-70
2023/05/09 00:08:46;;;;;;;48.67;10.13;;;13.40;99.90;;;;;;2056741;28;20252;-70
2023/05/09 00:09:48;;;;;;;46.78;7.15;;;13.40;99.90;;;;;;2056692;28;20223;-71
2023/05/09 00:10:48;;;;;;;50.10;8.20;;;13.40;99.90;;;;;;2056713;28;20223;-68
2023/05/09 00:11:50;;;;;;;65.73;8.23;;;13.40;99.90;;;;;;2056505;28;20239;-69
2023/05/09 00:12:51;;;;;;;48.88;7.82;;;13.40;99.90;;;;;;2056930;28;20594;-70
2023/05/09 00:13:52;;;;;;;100.40;12.77;;;13.30;99.90;;;;;;2056305;28;20241;-71
2023/05/09 00:14:55;;;;;;;18.30;6.57;;;13.20;99.90;;;;;;2056061;28;20375;-68
2023/05/09 00:15:57;;;;;;;41.40;8.23;;;13.20;99.90;;;;;;2056391;28;20234;-68
2023/05/09 00:16:58;;;;;;;38.33;8.88;;;13.20;99.90;;;;;;2055199;28;20231;-70
2023/05/09 00:17:59;;;;;;;79.18;11.43;;;13.30;99.90;;;;;;2056780;28;20233;-68
2023/05/09 00:19:00;;;;;;;75.03;12.20;;;13.30;99.90;;;;;;2047606;28;20195;-68
2023/05/09 00:20:04;;;;;;;53.92;9.73;;;13.20;99.90;;;;;;2048280;28;20196;-68
2023/05/09 00:21:04;;;;;;;48.15;9.52;;;13.20;99.90;;;;;;2055429;28;20217;-67
2023/05/09 00:22:05;;;;;;;52.53;9.93;;;13.30;99.90;;;;;;2054271;28;20701;-68
2023/05/09 00:23:07;;;;;;;24.85;7.28;;;13.30;99.90;;;;;;2056520;28;20301;-68
2023/05/09 00:24:08;;;;;;;72.82;9.05;;;13.40;99.90;;;;;;2055725;28;20274;-68
2023/05/09 00:25:10;;;;;;;29.70;7.85;;;13.40;99.90;;;;;;2055366;28;20282;-68
2023/05/09 00:26:11;;;;;;;23.38;8.18;;;13.40;99.90;;;;;;2055581;28;20618;-68
2023/05/09 00:27:12;;;;;;;15.97;6.83;;;13.40;99.90;;;;;;2051972;28;20239;-67
2023/05/09 00:28:13;;;;;;;10.13;6.40;;;13.40;99.90;;;;;;2045635;28;20697;-70
2023/05/09 00:29:15;;;;;;;11.37;6.67;;;13.40;99.90;;;;;;2035998;29;20217;-70
2023/05/09 00:30:17;;;;;;;8.07;5.90;;;13.50;99.90;;;;;;2039912;29;20188;-70
2023/05/09 00:31:19;;;;;;;6.88;5.25;;;13.50;99.90;;;;;;2051406;28;20318;-70
2023/05/09 00:32:20;;;;;;;7.47;5.18;;;13.50;99.90;;;;;;2055590;28;20704;-69
2023/05/09 00:33:20;;;;;;;7.30;4.60;;;13.50;99.90;;;;;;2055913;28;20231;-69
2023/05/09 00:34:21;;;;;;;5.70;4.90;;;13.50;99.90;;;;;;2056249;28;20223;-69
2023/05/09 00:35:22;;;;;;;10.03;5.30;;;13.50;99.90;;;;;;2056712;28;20271;-70
2023/05/09 00:36:23;;;;;;;6.97;5.23;;;13.50;99.90;;;;;;2048699;28;20228;-70
2023/05/09 00:37:25;;;;;;;7.57;5.43;;;13.50;99.90;;;;;;2036666;29;20376;-70
2023/05/09 00:38:26;;;;;;;6.70;4.95;;;13.50;99.90;;;;;;2041576;28;20275;-69
2023/05/09 00:39:26;;;;;;;7.03;5.30;;;13.50;99.90;;;;;;2047309;28;20227;-69
2023/05/09 00:40:27;;;;;;;8.10;5.43;;;13.50;99.90;;;;;;2046857;28;20232;-69
2023/05/09 00:41:28;;;;;;;11.97;5.07;;;13.50;99.90;;;;;;2059545;28;20229;-69
2023/05/09 00:42:29;;;;;;;11.47;4.83;;;13.40;99.90;;;;;;2063670;28;20318;-69
2023/05/09 00:43:29;;;;;;;15.93;5.60;;;13.40;99.90;;;;;;2056195;28;20250;-70
2023/05/09 00:44:30;;;;;;;39.00;7.97;;;13.40;99.90;;;;;;2056274;28;20285;-69
2023/05/09 00:45:31;;;;;;;10.67;5.50;;;13.50;99.90;;;;;;2050936;28;20241;-70
2023/05/09 00:46:32;;;;;;;19.35;6.05;;;13.50;99.90;;;;;;2044493;28;20235;-69
2023/05/09 00:47:34;;;;;;;35.53;7.67;;;13.60;99.90;;;;;;2063543;28;20238;-69
2023/05/09 00:48:36;;;;;;;39.90;8.27;;;13.60;99.90;;;;;;2055845;28;20334;-70
2023/05/09 00:49:37;;;;;;;36.10;10.13;;;13.60;99.90;;;;;;2043150;29;20235;-71
2023/05/09 00:50:39;;;;;;;31.00;6.93;;;13.60;99.90;;;;;;2042122;28;20220;-70
2023/05/09 00:51:40;;;;;;;44.35;7.88;;;13.50;99.90;;;;;;2055937;28;20293;-71
2023/05/09 00:52:41;;;;;;;37.97;7.23;;;13.50;99.90;;;;;;2065024;28;20230;-69
2023/05/09 00:53:42;;;;;;;29.67;8.93;;;13.50;99.90;;;;;;2046936;28;20268;-70
2023/05/09 00:54:43;;;;;;;25.45;7.25;;;13.50;99.90;;;;;;2039830;29;20220;-70
2023/05/09 00:55:44;;;;;;;29.97;6.97;;;13.50;99.90;;;;;;2031735;29;20239;-70
2023/05/09 00:56:46;;;;;;;34.67;7.97;;;13.60;99.90;;;;;;2039536;29;20303;-70
2023/05/09 00:57:48;;;;;;;22.08;6.40;;;13.70;99.90;;;;;;2048482;28;20224;-70
2023/05/09 00:58:49;;;;;;;43.72;8.25;;;13.60;99.90;;;;;;2045237;28;20234;-70
2023/05/09 00:59:50;;;;;;;37.37;6.87;;;13.70;99.90;;;;;;2053814;28;20242;-70
2023/05/09 01:00:52;;;;;;;58.10;8.63;;;13.70;99.90;;;;;;2039565;28;20727;-69
2023/05/09 01:01:52;;;;;;;40.03;7.40;;;13.70;99.90;;;;;;2052114;28;20231;-69
2023/05/09 01:02:55;;;;;;;38.63;7.87;;;13.70;99.90;;;;;;2039365;29;20243;-70
2023/05/09 01:03:58;;;;;;;39.63;8.45;;;13.60;99.90;;;;;;2031019;29;20248;-69
2023/05/09 01:04:59;;;;;;;55.95;9.45;;;13.70;99.90;;;;;;2043407;28;20219;-70
2023/05/09 01:06:14;;;;;;;92.00;12.33;;;13.50;99.90;;;;;;2054397;28;20207;-70
2023/05/09 01:08:06;;;;;;;50.83;9.18;;;13.40;99.90;;;;;;2046370;28;20194;-69
2023/05/09 01:09:34;;;;;;;28.70;7.63;;;13.40;99.90;;;;;;2050759;28;20226;-69
2023/05/09 01:10:54;;;;;;;30.92;8.93;;;13.40;99.90;;;;;;2052873;28;20223;-70
2023/05/09 01:12:25;;;;;;;19.27;7.63;;;13.30;99.90;;;;;;2053264;28;20226;-69
2023/05/09 01:13:54;;;;;;;48.72;12.65;;;13.40;99.90;;;;;;2050093;28;20709;-70
2023/05/09 01:15:23;;;;;;;28.55;9.43;;;13.30;99.90;;;;;;2048502;28;20230;-70
2023/05/09 01:16:30;;;;;;;28.75;10.65;;;13.30;99.90;;;;;;2052146;28;20312;-69
2023/05/09 01:17:57;;;;;;;40.72;11.82;;;13.30;99.90;;;;;;2059833;28;20225;-70
2023/05/09 01:20:01;;;;;;;25.00;10.02;;;13.30;99.90;;;;;;2052291;28;20688;-70
2023/05/09 01:21:10;;;;;;;29.20;10.35;;;13.30;99.90;;;;;;2011769;29;20300;-71
2023/05/09 01:22:14;;;;;;;39.00;10.63;;;13.30;99.90;;;;;;2045876;28;20196;-71
2023/05/09 01:23:44;;;;;;;34.47;9.70;;;13.40;99.90;;;;;;2034412;29;20223;-69
2023/05/09 01:24:59;;;;;;;21.63;8.82;;;13.40;99.90;;;;;;2052311;28;20598;-69
2023/05/09 01:26:07;;;;;;;34.35;9.38;;;13.40;99.90;;;;;;2044837;28;20222;-70
2023/05/09 01:27:22;;;;;;;22.25;8.55;;;13.40;99.90;;;;;;2048207;28;20674;-70
2023/05/09 01:28:31;;;;;;;52.53;10.45;;;13.40;99.90;;;;;;2038650;28;20253;-70
2023/05/09 01:29:45;;;;;;;23.48;8.30;;;13.40;99.90;;;;;;2056470;28;20234;-70
2023/05/09 01:30:50;;;;;;;24.65;9.07;;;13.50;99.90;;;;;;2045553;28;20294;-70
2023/05/09 01:31:54;;;;;;;25.30;8.63;;;13.40;99.90;;;;;;2044072;28;20299;-70
2023/05/09 01:32:59;;;;;;;27.23;8.80;;;13.40;99.90;;;;;;2054593;28;20238;-70
2023/05/09 01:34:02;;;;;;;20.05;7.57;;;13.40;99.90;;;;;;2050958;28;20226;-70
2023/05/09 01:35:05;;;;;;;32.65;9.38;;;13.40;99.90;;;;;;2037511;28;20200;-69
2023/05/09 01:36:12;;;;;;;43.67;9.68;;;13.30;99.90;;;;;;2040318;29;20725;-70
2023/05/09 01:37:15;;;;;;;21.17;8.85;;;13.40;99.90;;;;;;2047620;28;20206;-70
2023/05/09 01:38:21;;;;;;;33.90;8.40;;;13.30;99.90;;;;;;2055453;28;20206;-69
2023/05/09 01:39:24;;;;;;;17.05;7.57;;;13.30;99.90;;;;;;2047020;28;20250;-69
2023/05/09 01:40:30;;;;;;;28.52;8.93;;;13.30;99.90;;;;;;2047073;28;20353;-69
2023/05/09 01:41:35;;;;;;;28.38;9.55;;;13.30;99.90;;;;;;2046583;28;20334;-70
2023/05/09 01:42:51;;;;;;;10.70;6.57;;;13.30;99.90;;;;;;2030243;29;20235;-70
2023/05/09 01:43:54;;;;;;;12.93;7.15;;;13.30;99.90;;;;;;2037560;28;20733;-70
2023/05/09 01:44:56;;;;;;;12.45;6.55;;;13.20;99.90;;;;;;2039768;28;20689;-70
2023/05/09 01:45:59;;;;;;;11.23;7.10;;;13.30;99.90;;;;;;2054183;28;20250;-72
2023/05/09 01:47:01;;;;;;;11.23;7.32;;;13.30;99.90;;;;;;2055464;28;20198;-70
2023/05/09 01:48:06;;;;;;;11.48;6.38;;;13.40;99.90;;;;;;2055448;28;20293;-70
2023/05/09 01:49:08;;;;;;;7.80;6.18;;;13.00;99.90;;;;;;2037968;29;20248;-69
2023/05/09 01:50:11;;;;;;;11.20;6.00;;;13.40;99.90;;;;;;2028560;29;20208;-70
2023/05/09 01:51:14;;;;;;;9.70;5.72;;;13.40;99.90;;;;;;2046440;28;20175;-69
2023/05/09 01:52:18;;;;;;;8.23;5.28;;;13.40;99.90;;;;;;2052155;28;20190;-69
2023/05/09 01:53:21;;;;;;;9.57;6.10;;;13.40;99.90;;;;;;2047262;28;20270;-69
2023/05/09 01:54:26;;;;;;;7.38;5.40;;;13.40;99.90;;;;;;2036895;29;20243;-70
2023/05/09 01:55:33;;;;;;;9.00;5.70;;;13.40;99.90;;;;;;2034207;29;20288;-70
2023/05/09 01:56:36;;;;;;;8.02;5.63;;;13.40;99.90;;;;;;2052833;28;20242;-69
2023/05/09 01:57:39;;;;;;;8.10;5.00;;;13.40;99.90;;;;;;2035523;28;20219;-70
2023/05/09 01:58:41;;;;;;;8.63;5.07;;;13.30;99.90;;;;;;2046260;28;20227;-69
2023/05/09 01:59:44;;;;;;;5.85;4.25;;;13.20;99.90;;;;;;2045578;28;20340;-69
2023/05/09 02:00:47;;;;;;;5.53;4.70;;;13.20;99.90;;;;;;2045754;28;20238;-69
2023/05/09 02:01:49;;;;;;;5.03;4.15;;;13.20;99.90;;;;;;2038668;29;20235;-70
2023/05/09 02:02:51;;;;;;;6.00;4.10;;;13.20;99.90;;;;;;2036340;29;20232;-70
2023/05/09 02:03:53;;;;;;;5.05;4.15;;;13.20;99.90;;;;;;2043164;28;20271;-70
2023/05/09 02:04:57;;;;;;;5.25;4.07;;;13.20;99.90;;;;;;2037634;29;20235;-70
2023/05/09 02:05:58;;;;;;;5.40;4.40;;;13.30;99.90;;;;;;2045656;28;20247;-71
2023/05/09 02:07:00;;;;;;;4.68;4.15;;;13.40;99.90;;;;;;2047095;28;20219;-70
2023/05/09 02:08:01;;;;;;;5.22;4.10;;;13.30;99.90;;;;;;2044582;29;20184;-70
2023/05/09 02:09:02;;;;;;;5.20;4.20;;;13.30;99.90;;;;;;2035116;29;20260;-70
2023/05/09 02:10:06;;;;;;;6.22;4.35;;;13.30;99.90;;;;;;2030885;29;20267;-70
2023/05/09 02:11:07;;;;;;;7.53;5.10;;;13.40;99.90;;;;;;2039204;29;20226;-70
2023/05/09 02:12:08;;;;;;;5.40;4.10;;;13.50;99.90;;;;;;2038430;29;20287;-70
2023/05/09 02:13:09;;;;;;;5.20;4.45;;;13.50;99.90;;;;;;2049223;28;20199;-70
2023/05/09 02:14:14;;;;;;;6.77;4.53;;;13.50;99.90;;;;;;2054747;28;20229;-70
2023/05/09 02:15:15;;;;;;;4.95;4.03;;;13.50;99.90;;;;;;2055639;28;20187;-69
2023/05/09 02:16:17;;;;;;;6.97;4.30;;;13.50;99.90;;;;;;2061991;28;20187;-69
2023/05/09 02:17:18;;;;;;;4.90;4.22;;;13.40;99.90;;;;;;2060861;28;20943;-70
2023/05/09 02:18:18;;;;;;;5.93;4.10;;;13.30;99.90;;;;;;2049661;28;20243;-70
2023/05/09 02:19:19;;;;;;;4.93;3.67;;;13.10;99.90;;;;;;2038031;29;20250;-70
2023/05/09 02:20:20;;;;;;;4.37;3.90;;;12.90;99.90;;;;;;2040649;29;20235;-69
2023/05/09 02:21:21;;;;;;;4.70;3.43;;;12.90;99.90;;;;;;2040616;29;20270;-69
2023/05/09 02:22:23;;;;;;;4.37;3.77;;;12.90;99.90;;;;;;2048200;28;20262;-70
2023/05/09 02:23:23;;;;;;;4.45;3.95;;;13.00;99.90;;;;;;2045951;28;20257;-70
2023/05/09 02:24:26;;;;;;;4.27;3.87;;;12.90;99.90;;;;;;2051942;28;20666;-70
2023/05/09 02:25:27;;;;;;;5.25;4.15;;;12.90;99.90;;;;;;2048665;28;20315;-70
2023/05/09 02:26:29;;;;;;;6.35;4.10;;;12.80;99.90;;;;;;2048368;28;20255;-69
2023/05/09 02:27:32;;;;;;;4.93;3.80;;;12.80;99.90;;;;;;2049201;28;20724;-70
2023/05/09 02:28:35;;;;;;;4.20;3.60;;;12.80;99.90;;;;;;2051359;28;20242;-70
2023/05/09 02:29:49;;;;;;;5.93;4.65;;;12.80;99.90;;;;;;2054650;28;20219;-69
2023/05/09 02:30:52;;;;;;;4.95;4.18;;;12.80;99.90;;;;;;2045606;28;20226;-70
2023/05/09 02:31:55;;;;;;;6.05;4.60;;;12.80;99.90;;;;;;2052652;28;20721;-70
2023/05/09 02:33:03;;;;;;;7.13;4.22;;;12.90;99.90;;;;;;2053254;28;20301;-69
2023/05/09 02:34:05;;;;;;;4.85;3.80;;;12.90;99.90;;;;;;2048351;28;20267;-70
2023/05/09 02:35:09;;;;;;;5.07;3.45;;;12.90;99.90;;;;;;2048905;28;20192;-70
2023/05/09 02:36:11;;;;;;;6.22;4.10;;;12.80;99.90;;;;;;2056138;28;20199;-69
2023/05/09 02:37:13;;;;;;;5.05;3.92;;;12.70;99.90;;;;;;2056742;28;20333;-70
2023/05/09 02:38:15;;;;;;;4.65;3.95;;;12.70;99.90;;;;;;2048078;28;20199;-70
2023/05/09 02:39:16;;;;;;;5.38;4.28;;;12.60;99.90;;;;;;2052955;28;20191;-70
2023/05/09 02:40:20;;;;;;;6.87;3.90;;;12.70;99.90;;;;;;2053711;28;20239;-70
2023/05/09 02:41:21;;;;;;;7.97;4.20;;;12.70;99.90;;;;;;2040349;29;20244;-70
2023/05/09 02:42:24;;;;;;;8.30;4.53;;;12.30;99.90;;;;;;2040163;29;20322;-70
2023/05/09 02:43:26;;;;;;;6.30;4.28;;;12.70;99.90;;;;;;2052358;28;20227;-70
2023/05/09 02:44:27;;;;;;;5.78;3.92;;;12.70;99.90;;;;;;2037352;29;20711;-71
2023/05/09 02:45:29;;;;;;;6.55;4.32;;;12.70;99.90;;;;;;2033151;29;20611;-71
2023/05/09 02:46:30;;;;;;;5.78;4.15;;;12.80;99.90;;;;;;2040918;29;20286;-68
2023/05/09 02:47:31;;;;;;;4.88;4.30;;;12.80;99.90;;;;;;2051205;28;20246;-69
2023/05/09 02:48:32;;;;;;;7.77;4.87;;;12.90;99.90;;;;;;2056137;28;20248;-69
2023/05/09 02:49:33;;;;;;;7.07;3.83;;;12.90;99.90;;;;;;2048699;28;20318;-69
2023/05/09 02:50:36;;;;;;;6.60;4.55;;;12.90;99.90;;;;;;2044885;28;20231;-69
2023/05/09 02:51:38;;;;;;;4.65;3.97;;;13.00;99.90;;;;;;2047014;28;20310;-69
2023/05/09 02:52:38;;;;;;;5.53;4.35;;;13.00;99.90;;;;;;2048450;28;20757;-71
2023/05/09 02:53:39;;;;;;;6.17;4.60;;;13.00;99.90;;;;;;2049331;28;20219;-69
2023/05/09 02:54:40;;;;;;;9.47;5.60;;;13.10;99.90;;;;;;2040889;28;20675;-69
2023/05/09 02:55:41;;;;;;;9.33;5.77;;;13.10;99.90;;;;;;2049234;28;20242;-70
2023/05/09 02:56:42;;;;;;;7.83;5.13;;;13.20;99.90;;;;;;2054645;28;20214;-69
2023/05/09 02:57:43;;;;;;;8.70;5.80;;;13.20;99.90;;;;;;2056522;28;20622;-69
2023/05/09 02:58:49;;;;;;;10.47;6.13;;;13.30;99.90;;;;;;2048047;28;20220;-70
2023/05/09 02:59:50;;;;;;;15.68;6.65;;;13.20;99.90;;;;;;2045963;28;20330;-70
2023/05/09 03:00:51;;;;;;;17.00;7.83;;;13.20;99.90;;;;;;2047416;28;20228;-69
2023/05/09 03:01:52;;;;;;;10.60;6.43;;;13.20;99.90;;;;;;2045800;28;20227;-69
2023/05/09 03:02:53;;;;;;;9.15;6.00;;;13.30;99.90;;;;;;2048620;28;20234;-69
2023/05/09 03:03:54;;;;;;;9.02;5.47;;;13.20;99.90;;;;;;2048536;28;20267;-69
2023/05/09 03:04:55;;;;;;;7.20;4.73;;;13.30;99.90;;;;;;2048223;28;20784;-69
2023/05/09 03:05:56;;;;;;;6.70;5.07;;;13.20;99.90;;;;;;2048546;28;20470;-69
2023/05/09 03:06:56;;;;;;;32.03;7.50;;;13.20;99.90;;;;;;2046613;28;20464;-69
2023/05/09 03:07:57;;;;;;;18.00;6.30;;;13.20;99.90;;;;;;2052542;28;20231;-71
2023/05/09 03:08:58;;;;;;;28.50;7.07;;;13.10;99.90;;;;;;2056512;28;20718;-69
2023/05/09 03:09:59;;;;;;;47.87;7.80;;;13.20;99.90;;;;;;2060454;28;20575;-70
2023/05/09 03:11:00;;;;;;;16.77;7.18;;;13.20;99.90;;;;;;2060498;28;20186;-69
2023/05/09 03:12:02;;;;;;;13.30;5.67;;;13.20;99.90;;;;;;2055265;28;20206;-69
2023/05/09 03:13:03;;;;;;;26.30;6.25;;;13.20;99.90;;;;;;2046646;28;20246;-69
2023/05/09 03:14:05;;;;;;;17.13;5.93;;;13.20;99.90;;;;;;2048104;28;20685;-70
2023/05/09 03:15:07;;;;;;;11.60;6.05;;;13.20;99.90;;;;;;2048227;28;20215;-70
2023/05/09 03:16:07;;;;;;;12.63;6.25;;;13.30;99.90;;;;;;2046272;28;20254;-69
2023/05/09 03:17:08;;;;;;;8.67;5.33;;;13.30;99.90;;;;;;2048311;28;20720;-69
2023/05/09 03:18:11;;;;;;;9.80;5.10;;;13.20;99.90;;;;;;2047187;28;20564;-70
2023/05/09 03:19:12;;;;;;;10.50;5.72;;;13.30;99.90;;;;;;2054473;28;20217;-68
2023/05/09 03:20:14;;;;;;;9.90;5.27;;;13.30;99.90;;;;;;2050023;28;20195;-69
2023/05/09 03:21:15;;;;;;;15.00;5.80;;;13.30;99.90;;;;;;2056669;28;20632;-69
2023/05/09 03:22:16;;;;;;;10.70;5.37;;;13.30;99.90;;;;;;2051489;28;20202;-70
2023/05/09 03:23:17;;;;;;;8.82;4.60;;;13.30;99.90;;;;;;2060045;28;20243;-70
2023/05/09 03:24:19;;;;;;;9.17;5.37;;;13.20;99.90;;;;;;2063985;28;20296;-70
2023/05/09 03:25:19;;;;;;;18.00;6.65;;;13.20;99.90;;;;;;2058818;28;20597;-71
2023/05/09 03:26:20;;;;;;;12.47;5.20;;;13.20;99.90;;;;;;2049864;28;20240;-69
2023/05/09 03:27:21;;;;;;;14.80;5.87;;;13.30;99.90;;;;;;2045159;28;20294;-70
2023/05/09 03:28:22;;;;;;;13.47;6.53;;;13.30;99.90;;;;;;2051899;28;20560;-70
2023/05/09 03:29:23;;;;;;;42.00;6.20;;;13.30;99.90;;;;;;2034890;29;20252;-70
2023/05/09 03:30:25;;;;;;;14.10;6.30;;;13.30;99.90;;;;;;2035901;29;20300;-70
2023/05/09 03:31:26;;;;;;;7.70;4.68;;;13.30;99.90;;;;;;2043738;28;20248;-70
2023/05/09 03:32:28;;;;;;;11.73;5.70;;;13.30;99.90;;;;;;2029751;29;20229;-70
2023/05/09 03:33:29;;;;;;;10.02;5.38;;;13.30;99.90;;;;;;2034670;29;20232;-70
2023/05/09 03:34:31;;;;;;;11.23;6.30;;;13.30;99.90;;;;;;2045322;28;20239;-70
2023/05/09 03:35:32;;;;;;;15.65;7.05;;;13.30;99.90;;;;;;2047330;28;20244;-72
2023/05/09 03:36:33;;;;;;;12.20;6.70;;;13.30;99.90;;;;;;2048294;28;20255;-70
2023/05/09 03:37:33;;;;;;;18.83;6.70;;;13.20;99.90;;;;;;2056395;28;20226;-70
2023/05/09 03:38:34;;;;;;;11.57;5.20;;;13.10;99.90;;;;;;2056300;28;20684;-70
2023/05/09 03:39:35;;;;;;;16.23;5.50;;;13.20;99.90;;;;;;2056800;28;20302;-70
2023/05/09 03:40:36;;;;;;;11.30;5.97;;;13.20;99.90;;;;;;2045344;28;20317;-71
2023/05/09 03:41:37;;;;;;;22.50;5.93;;;13.20;99.90;;;;;;2055039;28;20220;-70
2023/05/09 03:42:38;;;;;;;26.20;7.07;;;13.20;99.90;;;;;;2042344;29;20239;-70
2023/05/09 03:43:40;;;;;;;17.90;6.53;;;13.30;99.90;;;;;;2030467;29;20217;-70
2023/05/09 03:44:42;;;;;;;40.45;8.10;;;13.30;99.90;;;;;;2044635;28;20663;-71
2023/05/09 03:45:44;;;;;;;92.68;11.98;;;13.40;99.90;;;;;;2057448;28;20242;-71
2023/05/09 03:46:47;;;;;;;25.92;7.03;;;13.30;99.90;;;;;;2054144;28;20226;-70
2023/05/09 03:47:49;;;;;;;30.98;7.25;;;13.30;99.90;;;;;;2058481;28;20222;-70
2023/05/09 03:48:50;;;;;;;27.73;7.80;;;13.40;99.90;;;;;;2049801;28;20254;-70
2023/05/09 03:49:52;;;;;;;42.57;9.03;;;13.40;99.90;;;;;;2040425;29;20224;-70
2023/05/09 03:50:54;;;;;;;86.18;10.70;;;13.40;99.90;;;;;;2040123;28;20307;-69
2023/05/09 03:51:55;;;;;;;78.10;9.23;;;13.40;99.90;;;;;;2055881;28;20254;-70
2023/05/09 03:52:56;;;;;;;126.93;12.83;;;13.30;99.90;;;;;;2055374;28;20226;-70
2023/05/09 03:53:57;;;;;;;49.67;7.17;;;13.30;99.90;;;;;;2046848;28;20714;-72
2023/05/09 03:54:57;;;;;;;43.83;7.03;;;13.20;99.90;;;;;;2040156;29;20709;-72
2023/05/09 03:55:58;;;;;;;30.47;5.90;;;13.20;99.90;;;;;;2048179;28;20563;-70
2023/05/09 03:56:59;;;;;;;34.23;7.33;;;13.20;99.90;;;;;;2047300;28;20658;-70
2023/05/09 03:58:00;;;;;;;60.20;8.93;;;13.20;99.90;;;;;;2052256;28;20191;-70
2023/05/09 03:59:00;;;;;;;52.87;8.57;;;13.20;99.90;;;;;;2054804;28;20187;-70
2023/05/09 04:00:04;;;;;;;29.85;6.57;;;13.10;99.90;;;;;;2055769;28;20660;-70
2023/05/09 04:01:05;;;;;;;89.68;8.48;;;13.10;99.90;;;;;;2046691;28;20592;-70
2023/05/09 04:02:06;;;;;;;21.03;6.10;;;13.10;99.90;;;;;;2046762;29;20231;-69
2023/05/09 04:03:07;;;;;;;42.37;7.43;;;13.10;99.90;;;;;;2039291;29;20216;-70
2023/05/09 04:04:08;;;;;;;56.20;11.40;;;12.70;99.90;;;;;;2047800;28;20204;-69
2023/05/09 04:05:08;;;;;;;50.23;10.23;;;13.20;99.90;;;;;;2043588;29;20202;-69
2023/05/09 04:06:09;;;;;;;48.73;9.43;;;13.20;99.90;;;;;;2047749;28;20262;-69
2023/05/09 04:07:10;;;;;;;62.53;9.07;;;13.30;99.90;;;;;;2048040;28;20251;-69
2023/05/09 04:08:11;;;;;;;60.93;9.47;;;13.40;99.90;;;;;;2031925;29;20727;-69
2023/05/09 04:09:13;;;;;;;95.10;9.52;;;13.40;99.90;;;;;;2040108;28;20189;-68
2023/05/09 04:10:14;;;;;;;91.28;9.75;;;13.40;99.90;;;;;;2047834;28;20196;-69
2023/05/09 04:11:15;;;;;;;49.87;7.53;;;13.50;99.90;;;;;;2036477;29;20843;-69
2023/05/09 04:12:15;;;;;;;250.90;20.47;;;13.40;99.90;;;;;;2042285;28;20187;-71
2023/05/09 04:13:17;;;;;;;75.27;8.97;;;13.30;99.90;;;;;;2047952;28;20231;-69
2023/05/09 04:14:18;;;;;;;90.65;9.68;;;13.30;99.90;;;;;;2046062;28;20275;-69
2023/05/09 04:15:19;;;;;;;46.17;7.60;;;13.30;99.90;;;;;;2045588;28;20228;-69
2023/05/09 04:16:19;;;;;;;87.37;9.40;;;13.30;99.90;;;;;;2023646;29;20233;-69
2023/05/09 04:17:21;;;;;;;87.13;11.10;;;13.30;99.90;;;;;;2032130;29;20229;-72
2023/05/09 04:18:22;;;;;;;77.55;9.45;;;13.20;99.90;;;;;;2048265;28;20234;-69
2023/05/09 04:19:23;;;;;;;232.17;17.87;;;13.20;99.90;;;;;;2048517;28;20242;-70
2023/05/09 04:20:24;;;;;;;174.93;13.97;;;13.30;99.90;;;;;;2047879;28;21012;-68
2023/05/09 04:21:25;;;;;;;98.17;11.03;;;13.30;99.90;;;;;;2048568;28;20231;-67
2023/05/09 04:22:27;;;;;;;115.57;12.47;;;13.30;99.90;;;;;;2048006;28;20235;-67
2023/05/09 04:23:27;;;;;;;114.00;12.40;;;13.40;99.90;;;;;;2047900;28;20472;-69
2023/05/09 04:24:28;;;;;;;88.57;10.53;;;13.40;99.90;;;;;;2047303;28;20318;-68
2023/05/09 04:25:30;;;;;;;86.37;8.63;;;13.50;99.90;;;;;;2047852;28;20310;-69
2023/05/09 04:26:31;;;;;;;66.70;9.30;;;13.50;99.90;;;;;;2047718;28;20235;-67
2023/05/09 04:27:31;;;;;;;130.03;16.03;;;13.50;99.90;;;;;;2048627;28;20282;-68
2023/05/09 04:28:32;;;;;;;120.97;13.63;;;13.50;99.90;;;;;;2055587;28;20227;-67
2023/05/09 04:29:34;;;;;;;70.30;9.60;;;13.50;99.90;;;;;;2055785;28;20222;-70
2023/05/09 04:30:35;;;;;;;92.78;11.40;;;13.50;99.90;;;;;;2047266;28;20693;-69
2023/05/09 04:31:36;;;;;;;96.20;9.38;;;13.50;99.90;;;;;;2039685;29;20232;-69
2023/05/09 04:32:37;;;;;;;50.60;8.70;;;13.50;99.90;;;;;;2044385;28;20223;-69
2023/05/09 04:33:38;;;;;;;73.18;10.65;;;13.40;99.90;;;;;;2055274;28;20222;-69
2023/05/09 04:34:39;;;;;;;75.60;9.93;;;13.30;99.90;;;;;;2048060;28;20215;-69
2023/05/09 04:35:40;;;;;;;68.68;10.77;;;13.20;99.90;;;;;;2047803;28;20238;-69
2023/05/09 04:36:41;;;;;;;84.30;9.50;;;13.30;99.90;;;;;;2053401;28;20301;-69
2023/05/09 04:37:42;;;;;;;123.90;10.07;;;13.30;99.90;;;;;;2056520;28;20229;-69
2023/05/09 04:38:42;;;;;;;198.48;18.73;;;13.30;99.90;;;;;;2055912;28;20692;-69
2023/05/09 04:39:43;;;;;;;117.17;17.10;;;13.20;99.90;;;;;;2056640;28;20433;-69
2023/05/09 04:40:45;;;;;;;138.77;12.53;;;13.20;99.90;;;;;;2056134;28;20227;-69
2023/05/09 04:41:46;;;;;;;114.32;12.95;;;13.30;99.90;;;;;;2055586;28;20219;-69
2023/05/09 04:42:47;;;;;;;129.13;12.98;;;13.30;99.90;;;;;;2047619;28;20232;-69
2023/05/09 04:43:48;;;;;;;110.60;12.47;;;13.30;99.90;;;;;;2047664;28;20314;-69
2023/05/09 04:44:50;;;;;;;137.13;11.87;;;13.30;99.90;;;;;;2047368;28;20289;-69
2023/05/09 04:45:51;;;;;;;62.03;9.57;;;13.30;99.90;;;;;;2055005;28;20255;-70
2023/05/09 04:46:53;;;;;;;73.83;10.13;;;13.30;99.90;;;;;;2055225;28;20230;-69
2023/05/09 04:47:54;;;;;;;66.40;10.40;;;13.30;99.90;;;;;;2055641;28;20231;-69
2023/05/09 04:48:55;;;;;;;90.73;9.90;;;13.30;99.90;;;;;;2055791;28;20978;-69
2023/05/09 04:49:56;;;;;;;105.90;11.37;;;13.30;99.90;;;;;;2056367;28;20289;-68
2023/05/09 04:50:57;;;;;;;56.22;8.20;;;13.40;99.90;;;;;;2053907;28;20219;-70
2023/05/09 04:51:58;;;;;;;43.88;8.18;;;13.40;99.90;;;;;;2057880;28;20194;-68
2023/05/09 04:52:59;;;;;;;103.07;10.20;;;13.40;99.90;;;;;;2052044;28;20708;-71
2023/05/09 04:54:00;;;;;;;46.23;7.07;;;13.30;99.90;;;;;;2063363;28;20253;-69
2023/05/09 04:55:04;;;;;;;81.63;8.87;;;13.30;99.90;;;;;;2054167;28;20201;-69
2023/05/09 04:56:05;;;;;;;35.15;6.80;;;13.30;99.90;;;;;;2052791;28;20280;-69
2023/05/09 04:57:05;;;;;;;64.97;8.77;;;13.20;99.90;;;;;;2048143;28;20289;-69
2023/05/09 04:58:08;;;;;;;49.20;6.50;;;13.10;99.90;;;;;;2048034;28;20763;-69
2023/05/09 04:59:09;;;;;;;97.55;10.48;;;13.10;99.90;;;;;;2048184;28;20188;-69
2023/05/09 05:00:12;;;;;;;40.00;7.17;;;13.00;99.90;;;;;;2047808;28;20270;-70
2023/05/09 05:01:13;;;;;;;75.65;10.13;;;13.00;99.90;;;;;;2046082;28;20210;-69
2023/05/09 05:02:14;;;;;;;70.07;10.37;;;12.90;99.90;;;;;;2046920;28;20202;-69
2023/05/09 05:03:16;;;;;;;51.23;8.37;;;13.00;99.90;;;;;;2049785;28;20230;-69
2023/05/09 05:04:17;;;;;;;60.45;10.18;;;13.00;99.90;;;;;;2049730;28;20671;-70
2023/05/09 05:05:18;;;;;;;37.73;9.37;;;13.10;99.90;;;;;;2048134;28;20238;-69
2023/05/09 05:06:19;;;;;;;40.13;7.77;;;13.20;99.90;;;;;;2045589;28;20683;-69
2023/05/09 05:07:20;;;;;;;33.23;7.27;;;13.20;99.90;;;;;;2045391;28;20983;-69
2023/05/09 05:08:20;;;;;;;17.23;6.37;;;13.30;99.90;;;;;;2044309;28;20232;-69
2023/05/09 05:09:21;;;;;;;47.77;10.33;;;13.40;99.90;;;;;;2036252;29;20873;-69
2023/05/09 05:10:22;;;;;;;28.20;7.43;;;13.50;99.90;;;;;;2050673;28;20682;-69
2023/05/09 05:11:22;;;;;;;55.10;10.20;;;13.40;99.90;;;;;;2054395;28;20393;-69
2023/05/09 05:12:23;;;;;;;34.00;9.33;;;13.50;99.90;;;;;;2048660;28;20231;-69
2023/05/09 05:13:24;;;;;;;89.50;14.30;;;13.30;99.90;;;;;;2055648;28;20314;-69
2023/05/09 05:14:25;;;;;;;34.67;7.97;;;13.50;99.90;;;;;;2055156;28;20627;-69
2023/05/09 05:15:27;;;;;;;61.37;11.20;;;13.60;99.90;;;;;;2047169;28;20231;-69
2023/05/09 05:16:27;;;;;;;27.20;7.70;;;13.70;99.90;;;;;;2051276;28;20227;-69
2023/05/09 05:17:28;;;;;;;85.57;10.73;;;13.80;99.90;;;;;;2052358;28;20674;-69
2023/05/09 05:18:29;;;;;;;83.30;11.33;;;14.00;99.90;;;;;;2061011;28;20253;-70
2023/05/09 05:19:30;;;;;;;33.83;8.43;;;13.90;99.90;;;;;;2060309;28;20307;-69
2023/05/09 05:20:31;;;;;;;33.55;6.80;;;13.90;99.90;;;;;;2055882;28;20219;-69
2023/05/09 05:21:32;;;;;;;26.50;6.60;;;14.00;99.90;;;;;;2050506;28;20242;-69
2023/05/09 05:22:32;;;;;;;38.33;7.13;;;14.10;99.90;;;;;;2038267;29;20248;-69
2023/05/09 05:23:34;;;;;;;23.97;6.50;;;14.10;99.90;;;;;;2042384;29;20508;-69